createdAt,value
2018-07-13T00:02:13.462Z,13.90
2018-07-13T00:04:41.808Z,14.00
2018-07-13T00:07:10.159Z,14.00
2018-07-13T00:09:38.579Z,14.10
2018-07-13T00:12:06.936Z,14.10
2018-07-13T00:14:35.285Z,13.70
2018-07-13T00:17:03.712Z,13.60
2018-07-13T00:19:32.051Z,13.40
2018-07-13T00:22:00.411Z,13.30
2018-07-13T00:24:28.822Z,13.20
2018-07-13T00:26:57.116Z,13.10
2018-07-13T00:29:25.442Z,13.10
2018-07-13T00:31:53.811Z,13.10
2018-07-13T00:34:22.197Z,13.10
2018-07-13T00:36:50.564Z,13.10
2018-07-13T00:39:19.015Z,13.20
2018-07-13T00:41:47.401Z,13.10
2018-07-13T00:44:15.752Z,13.00
2018-07-13T00:46:44.129Z,13.10
2018-07-13T00:49:12.451Z,13.10
2018-07-13T00:51:40.791Z,13.10
2018-07-13T00:54:09.121Z,13.20
2018-07-13T00:56:37.479Z,13.20
2018-07-13T00:59:05.778Z,13.10
2018-07-13T01:01:34.123Z,13.10
2018-07-13T01:08:58.625Z,13.10
2018-07-13T01:11:26.980Z,13.10
2018-07-13T01:13:55.340Z,13.10
2018-07-13T01:16:23.695Z,13.10
2018-07-13T01:18:52.037Z,13.00
2018-07-13T01:21:20.413Z,13.00
2018-07-13T01:23:48.774Z,12.90
2018-07-13T01:26:17.217Z,12.70
2018-07-13T01:28:45.642Z,12.70
2018-07-13T01:31:14.022Z,12.60
2018-07-13T01:33:42.427Z,12.50
2018-07-13T01:36:10.743Z,12.50
2018-07-13T01:38:39.081Z,12.50
2018-07-13T01:41:07.390Z,12.50
2018-07-13T01:43:35.719Z,12.60
2018-07-13T01:46:04.098Z,12.60
2018-07-13T01:48:32.420Z,12.70
2018-07-13T01:51:00.762Z,12.80
2018-07-13T01:53:29.123Z,12.80
2018-07-13T01:55:57.522Z,12.70
2018-07-13T01:58:25.866Z,12.70
2018-07-13T02:00:54.195Z,12.70
2018-07-13T02:03:22.551Z,12.70
2018-07-13T02:05:50.849Z,12.70
2018-07-13T02:08:19.225Z,12.60
2018-07-13T02:10:47.631Z,12.50
2018-07-13T02:13:16.007Z,12.50
2018-07-13T02:15:44.337Z,12.50
2018-07-13T02:18:12.662Z,12.40
2018-07-13T02:20:41.077Z,12.40
2018-07-13T02:23:09.454Z,12.30
2018-07-13T02:25:37.759Z,12.20
2018-07-13T02:28:06.101Z,12.20
2018-07-13T02:30:34.430Z,12.20
2018-07-13T02:33:02.768Z,12.10
2018-07-13T02:35:31.177Z,12.00
2018-07-13T02:40:27.558Z,12.00
2018-07-13T02:42:55.877Z,12.00
2018-07-13T02:45:24.257Z,12.00
2018-07-13T02:47:52.712Z,11.90
2018-07-13T02:50:21.036Z,12.00
2018-07-13T02:52:49.433Z,11.90
2018-07-13T02:55:17.767Z,11.80
2018-07-13T02:57:46.166Z,11.70
2018-07-13T03:00:14.506Z,11.70
2018-07-13T03:02:42.868Z,11.70
2018-07-13T03:05:11.422Z,11.70
2018-07-13T03:07:39.759Z,11.70
2018-07-13T03:10:08.116Z,11.70
2018-07-13T03:12:36.433Z,11.70
2018-07-13T03:15:04.754Z,11.70
2018-07-13T03:17:33.109Z,11.80
2018-07-13T03:20:01.449Z,11.70
2018-07-13T03:22:29.776Z,11.70
2018-07-13T03:24:58.165Z,11.70
2018-07-13T03:27:26.494Z,11.70
2018-07-13T03:29:54.902Z,11.70
2018-07-13T03:32:23.253Z,11.60
2018-07-13T03:34:51.633Z,11.60
2018-07-13T03:37:20.056Z,11.60
2018-07-13T03:39:48.371Z,11.60
2018-07-13T03:42:16.702Z,11.70
2018-07-13T03:44:45.012Z,11.70
2018-07-13T03:47:13.382Z,11.70
2018-07-13T03:49:41.735Z,11.70
2018-07-13T03:52:10.103Z,11.70
2018-07-13T03:54:38.467Z,11.70
2018-07-13T03:57:06.821Z,11.70
2018-07-13T03:59:35.345Z,11.60
2018-07-13T04:02:03.734Z,11.50
2018-07-13T04:04:32.073Z,11.50
2018-07-13T04:07:00.446Z,11.50
2018-07-13T04:09:28.759Z,11.50
2018-07-13T04:11:57.094Z,11.60
2018-07-13T04:14:25.413Z,11.50
2018-07-13T04:16:53.738Z,11.60
2018-07-13T04:19:22.086Z,11.60
2018-07-13T04:21:50.411Z,11.50
2018-07-13T04:24:18.786Z,11.60
2018-07-13T04:26:47.978Z,11.50
2018-07-13T04:29:16.325Z,11.60
2018-07-13T04:31:44.903Z,11.70
2018-07-13T04:34:13.258Z,11.50
2018-07-13T04:36:41.571Z,11.80
2018-07-13T04:39:11.568Z,11.80
2018-07-13T04:41:40.036Z,11.70
2018-07-13T04:44:08.785Z,11.70
2018-07-13T04:46:37.105Z,11.70
2018-07-13T04:49:05.644Z,11.60
2018-07-13T04:51:34.059Z,11.60
2018-07-13T04:54:02.449Z,11.60
2018-07-13T04:56:30.842Z,11.60
2018-07-13T04:58:59.333Z,11.60
2018-07-13T05:01:27.688Z,11.70
2018-07-13T05:03:56.215Z,11.80
2018-07-13T05:06:24.605Z,11.80
2018-07-13T05:08:52.964Z,11.80
2018-07-13T05:11:21.330Z,12.00
2018-07-13T05:13:49.680Z,11.90
2018-07-13T05:16:18.610Z,12.00
2018-07-13T05:18:47.082Z,12.10
2018-07-13T05:21:15.495Z,12.30
2018-07-13T05:23:43.829Z,12.40
2018-07-13T05:26:12.239Z,12.50
2018-07-13T05:28:40.595Z,12.80
2018-07-13T05:31:08.988Z,13.00
2018-07-13T05:33:37.390Z,13.10
2018-07-13T05:36:05.764Z,13.30
2018-07-13T05:38:34.140Z,13.30
2018-07-13T05:41:02.584Z,13.40
2018-07-13T05:43:30.954Z,13.30
2018-07-13T05:45:59.315Z,13.40
2018-07-13T05:48:27.682Z,13.40
2018-07-13T05:50:56.114Z,13.50
2018-07-13T05:53:24.471Z,13.60
2018-07-13T05:55:52.847Z,13.60
2018-07-13T05:58:21.234Z,13.70
2018-07-13T06:00:49.940Z,13.70
2018-07-13T06:03:18.265Z,13.80
2018-07-13T06:08:14.709Z,14.00
2018-07-13T06:10:43.056Z,14.00
2018-07-13T06:13:11.368Z,14.20
2018-07-13T06:15:39.740Z,14.30
2018-07-13T06:18:08.154Z,14.50
2018-07-13T06:20:36.502Z,14.70
2018-07-13T06:23:04.895Z,14.90
2018-07-13T06:25:33.246Z,15.30
2018-07-13T06:28:01.582Z,15.60
2018-07-13T06:30:29.941Z,15.90
2018-07-13T06:32:58.266Z,16.40
2018-07-13T06:35:26.653Z,16.70
2018-07-13T06:37:55.071Z,17.00
2018-07-13T06:40:23.423Z,17.20
2018-07-13T06:42:51.866Z,17.30
2018-07-13T06:45:20.191Z,17.30
2018-07-13T06:47:48.590Z,17.40
2018-07-13T06:50:16.947Z,17.50
2018-07-13T06:52:45.311Z,17.60
2018-07-13T06:55:14.987Z,17.80
2018-07-13T06:57:54.577Z,17.90
2018-07-13T07:00:59.279Z,18.20
2018-07-13T07:03:28.866Z,18.50
2018-07-13T07:06:00.066Z,18.70
2018-07-13T07:08:28.541Z,18.70
2018-07-13T07:10:57.635Z,18.70
2018-07-13T07:13:29.862Z,18.50
2018-07-13T07:15:58.650Z,18.50
2018-07-13T07:18:26.994Z,18.70
2018-07-13T07:20:56.498Z,18.90
2018-07-13T07:23:24.827Z,18.90
2018-07-13T07:25:53.738Z,19.00
2018-07-13T07:33:18.534Z,19.70
2018-07-13T07:35:47.164Z,19.70
2018-07-13T07:38:15.511Z,19.80
2018-07-13T07:40:43.958Z,20.10
2018-07-13T07:43:12.309Z,20.40
2018-07-13T07:45:40.698Z,21.20
2018-07-13T07:48:09.034Z,22.50
2018-07-13T07:50:37.430Z,23.10
2018-07-13T07:53:05.826Z,23.60
2018-07-13T07:55:34.180Z,24.20
2018-07-13T07:58:02.615Z,24.40
2018-07-13T08:00:31.039Z,24.10
2018-07-13T08:02:59.451Z,23.30
2018-07-13T08:05:27.851Z,22.70
2018-07-13T08:07:56.261Z,22.50
2018-07-13T08:10:24.652Z,22.50
2018-07-13T08:12:53.041Z,22.40
2018-07-13T08:15:21.385Z,22.40
2018-07-13T08:17:49.804Z,22.60
2018-07-13T08:20:22.568Z,23.30
2018-07-13T08:22:52.538Z,24.00
2018-07-13T08:25:21.817Z,24.20
2018-07-13T08:27:51.805Z,24.10
2018-07-13T08:30:25.485Z,24.00
2018-07-13T08:32:53.861Z,24.60
2018-07-13T08:35:22.238Z,24.90
2018-07-13T08:37:50.698Z,24.70
2018-07-13T08:40:19.013Z,24.50
2018-07-13T08:42:47.421Z,24.20
2018-07-13T08:45:15.782Z,24.00
2018-07-13T08:47:44.153Z,24.00
2018-07-13T08:50:12.494Z,24.30
2018-07-13T08:52:40.841Z,24.20
2018-07-13T08:55:12.070Z,24.60
2018-07-13T08:57:41.300Z,25.00
2018-07-13T09:00:09.898Z,25.50
2018-07-13T09:02:38.979Z,25.60
2018-07-13T09:05:07.491Z,25.30
2018-07-13T09:07:36.623Z,25.10
2018-07-13T09:10:08.621Z,25.30
2018-07-13T09:12:37.138Z,25.60
2018-07-13T09:15:05.480Z,25.90
2018-07-13T09:17:33.868Z,25.60
2018-07-13T09:20:02.227Z,25.20
2018-07-13T09:22:30.543Z,25.10
2018-07-13T09:24:58.909Z,25.30
2018-07-13T09:27:27.254Z,25.60
2018-07-13T09:29:55.663Z,25.90
2018-07-13T09:32:24.014Z,26.10
2018-07-13T09:34:52.409Z,26.30
2018-07-13T09:37:20.908Z,26.40
2018-07-13T09:39:49.335Z,26.60
2018-07-13T09:42:17.709Z,26.20
2018-07-13T09:44:46.136Z,26.40
2018-07-13T09:47:14.514Z,26.50
2018-07-13T09:49:42.897Z,26.20
2018-07-13T09:52:11.270Z,26.20
2018-07-13T09:54:39.650Z,26.70
2018-07-13T09:57:07.978Z,26.50
2018-07-13T09:59:36.345Z,26.20
2018-07-13T10:04:32.783Z,26.10
2018-07-13T10:07:01.141Z,26.00
2018-07-13T10:09:29.510Z,25.70
2018-07-13T10:14:26.061Z,26.00
2018-07-13T10:16:54.440Z,26.30
2018-07-13T10:19:22.817Z,26.60
2018-07-13T10:21:51.325Z,26.90
2018-07-13T10:24:20.604Z,27.10
2018-07-13T10:26:48.936Z,27.50
2018-07-13T10:29:22.682Z,27.90
2018-07-13T10:31:51.468Z,27.80
2018-07-13T10:34:20.693Z,28.10
2018-07-13T10:36:56.040Z,27.70
2018-07-13T10:39:24.378Z,26.90
2018-07-13T10:41:53.027Z,26.20
2018-07-13T10:44:21.404Z,25.50
2018-07-13T10:49:17.860Z,25.80
2018-07-13T10:51:46.281Z,26.00
2018-07-13T10:54:14.658Z,26.10
2018-07-13T10:56:43.003Z,26.40
2018-07-13T10:59:11.334Z,26.80
2018-07-13T11:01:39.894Z,27.10
2018-07-13T11:04:08.891Z,27.00
2018-07-13T11:06:37.242Z,26.40
2018-07-13T11:09:06.781Z,25.60
2018-07-13T11:11:35.355Z,25.30
2018-07-13T11:14:04.006Z,25.30
2018-07-13T11:16:32.316Z,25.10
2018-07-13T11:19:00.705Z,25.20
2018-07-13T11:21:29.197Z,25.70
2018-07-13T11:23:57.538Z,26.20
2018-07-13T11:26:26.037Z,27.10
2018-07-13T11:28:54.833Z,27.80
2018-07-13T11:31:23.241Z,28.30
2018-07-13T11:33:51.660Z,28.40
2018-07-13T11:36:19.991Z,28.30
2018-07-13T11:38:48.337Z,27.90
2018-07-13T11:41:17.018Z,27.90
2018-07-13T11:43:45.420Z,27.80
2018-07-13T11:46:13.779Z,27.40
2018-07-13T11:48:42.150Z,27.20
2018-07-13T11:51:10.564Z,27.00
2018-07-13T11:53:38.939Z,27.10
2018-07-13T11:56:07.308Z,26.90
2018-07-13T11:58:35.692Z,26.60
2018-07-13T12:01:04.034Z,26.50
2018-07-13T12:03:32.368Z,26.60
2018-07-13T12:06:00.687Z,26.90
2018-07-13T12:08:29.079Z,26.80
2018-07-13T12:10:57.450Z,26.90
2018-07-13T12:13:25.813Z,27.50
2018-07-13T12:15:54.201Z,28.20
2018-07-13T12:18:22.580Z,27.80
2018-07-13T12:20:50.886Z,28.40
2018-07-13T12:23:19.398Z,28.00
2018-07-13T12:25:47.722Z,28.60
2018-07-13T12:28:16.271Z,28.40
2018-07-13T12:33:12.624Z,29.10
2018-07-13T12:35:41.001Z,28.40
2018-07-13T12:38:09.377Z,28.20
2018-07-13T12:40:37.770Z,29.10
2018-07-13T12:43:06.116Z,29.10
2018-07-13T12:45:34.484Z,28.90
2018-07-13T12:48:02.852Z,28.80
2018-07-13T12:50:31.289Z,28.20
2018-07-13T12:52:59.674Z,27.90
2018-07-13T12:55:28.055Z,27.50
2018-07-13T12:57:56.417Z,27.30
2018-07-13T13:00:24.738Z,27.30
2018-07-13T13:02:53.114Z,26.90
2018-07-13T13:05:21.575Z,26.50
2018-07-13T13:07:49.887Z,26.60
2018-07-13T13:10:18.455Z,26.90
2018-07-13T13:12:46.845Z,27.50
2018-07-13T13:15:15.171Z,28.00
2018-07-13T13:17:43.534Z,28.60
2018-07-13T13:20:11.959Z,28.80
2018-07-13T13:22:40.361Z,28.40
2018-07-13T13:25:08.773Z,27.40
2018-07-13T13:27:37.147Z,26.90
2018-07-13T13:30:05.527Z,26.20
2018-07-13T13:32:33.905Z,26.30
2018-07-13T13:35:02.247Z,26.20
2018-07-13T13:37:30.639Z,26.00
2018-07-13T13:39:58.974Z,27.00
2018-07-13T13:42:27.392Z,29.10
2018-07-13T13:44:55.763Z,30.30
2018-07-13T13:47:24.228Z,31.80
2018-07-13T13:49:52.589Z,32.60
2018-07-13T13:52:20.953Z,33.30
2018-07-13T13:54:49.313Z,34.00
2018-07-13T13:57:17.663Z,34.20
2018-07-13T13:59:46.106Z,33.20
2018-07-13T14:02:14.465Z,32.30
2018-07-13T14:04:42.833Z,32.20
2018-07-13T14:07:11.203Z,31.80
2018-07-13T14:12:07.606Z,31.20
2018-07-13T14:14:36.095Z,30.90
2018-07-13T14:17:04.405Z,30.90
2018-07-13T14:19:32.765Z,31.20
2018-07-13T14:22:01.189Z,31.80
2018-07-13T14:24:29.570Z,31.90
2018-07-13T14:26:57.937Z,31.30
2018-07-13T14:31:54.373Z,30.80
2018-07-13T14:34:22.737Z,29.50
2018-07-13T14:36:51.175Z,30.00
2018-07-13T14:39:19.635Z,30.80
2018-07-13T14:41:48.012Z,31.60
2018-07-13T14:44:16.347Z,31.90
2018-07-13T14:46:44.787Z,31.70
2018-07-13T14:49:13.537Z,32.30
2018-07-13T14:51:41.899Z,32.20
2018-07-13T14:54:10.206Z,31.90
2018-07-13T14:56:38.567Z,30.50
2018-07-13T14:59:06.985Z,29.40
2018-07-13T15:01:35.348Z,28.60
2018-07-13T15:04:03.746Z,27.60
2018-07-13T15:06:32.355Z,26.70
2018-07-13T15:09:00.466Z,26.30
2018-07-13T15:11:28.843Z,26.10
2018-07-13T15:13:57.280Z,26.00
2018-07-13T15:16:25.733Z,25.70
2018-07-13T15:18:54.068Z,25.60
2018-07-13T15:21:22.429Z,25.60
2018-07-13T15:23:50.768Z,25.50
2018-07-13T15:26:19.169Z,25.30
2018-07-13T15:28:47.605Z,25.10
2018-07-13T15:31:15.952Z,25.00
2018-07-13T15:33:44.405Z,25.00
2018-07-13T15:36:12.775Z,24.90
2018-07-13T15:38:45.214Z,24.60
2018-07-13T15:41:13.614Z,24.20
2018-07-13T15:43:41.953Z,24.20
2018-07-13T15:46:10.294Z,24.30
2018-07-13T15:48:38.642Z,24.30
2018-07-13T15:51:07.012Z,24.40
2018-07-13T15:53:35.382Z,24.50
2018-07-13T15:56:03.777Z,24.70
2018-07-13T15:58:32.238Z,25.00
2018-07-13T16:01:00.582Z,26.10
2018-07-13T16:03:28.957Z,26.20
2018-07-13T16:05:57.495Z,26.00
2018-07-13T16:08:25.872Z,25.40
2018-07-13T16:10:54.249Z,25.00
2018-07-13T16:13:22.612Z,24.50
2018-07-13T16:15:51.063Z,24.30
2018-07-13T16:18:19.608Z,24.00
2018-07-13T16:20:48.060Z,24.00
2018-07-13T16:23:16.444Z,24.10
2018-07-13T16:25:46.126Z,24.20
2018-07-13T16:28:14.560Z,24.50
2018-07-13T16:30:42.948Z,25.80
2018-07-13T16:33:11.322Z,27.30
2018-07-13T16:35:39.698Z,27.90
2018-07-13T16:38:08.110Z,28.20
2018-07-13T16:40:36.481Z,28.60
2018-07-13T16:43:04.799Z,28.60
2018-07-13T16:45:33.122Z,27.50
2018-07-13T16:48:01.489Z,26.80
2018-07-13T16:50:29.852Z,26.00
2018-07-13T16:52:58.184Z,25.40
2018-07-13T16:55:26.497Z,25.00
2018-07-13T16:57:54.856Z,24.70
2018-07-13T17:00:23.235Z,24.60
2018-07-13T17:05:19.725Z,24.40
2018-07-13T17:07:48.052Z,24.80
2018-07-13T17:10:16.588Z,24.90
2018-07-13T17:12:44.980Z,25.50
2018-07-13T17:15:13.354Z,25.60
2018-07-13T17:17:41.756Z,25.20
2018-07-13T17:20:10.204Z,24.90
2018-07-13T17:22:38.493Z,24.80
2018-07-13T17:25:06.943Z,24.50
2018-07-13T17:27:35.309Z,24.30
2018-07-13T17:30:03.821Z,24.10
2018-07-13T17:32:32.207Z,23.90
2018-07-13T17:35:00.627Z,23.80
2018-07-13T17:37:28.970Z,23.50
2018-07-13T17:39:57.305Z,23.20
2018-07-13T17:42:25.685Z,23.20
2018-07-13T17:44:54.071Z,23.20
2018-07-13T17:47:22.399Z,23.20
2018-07-13T17:49:50.755Z,23.30
2018-07-13T17:52:19.140Z,23.30
2018-07-13T17:54:47.532Z,23.50
2018-07-13T17:57:16.076Z,23.70
2018-07-13T17:59:44.491Z,23.60
2018-07-13T18:02:12.912Z,23.50
2018-07-13T18:04:41.430Z,23.60
2018-07-13T18:07:09.875Z,23.70
2018-07-13T18:09:38.297Z,23.80
2018-07-13T18:12:06.776Z,23.90
2018-07-13T18:14:35.137Z,23.90
2018-07-13T18:17:03.578Z,23.90
2018-07-13T18:19:32.169Z,23.60
2018-07-13T18:22:00.516Z,23.60
2018-07-13T18:24:28.912Z,23.40
2018-07-13T18:26:57.271Z,23.10
2018-07-13T18:29:25.706Z,23.00
2018-07-13T18:31:54.110Z,23.00
2018-07-13T18:34:22.649Z,22.80
2018-07-13T18:36:51.077Z,22.70
2018-07-13T18:39:19.463Z,22.80
2018-07-13T18:41:47.831Z,22.70
2018-07-13T18:44:16.338Z,22.70
2018-07-13T18:46:44.753Z,22.70
2018-07-13T18:49:13.180Z,22.70
2018-07-13T18:51:41.557Z,22.70
2018-07-13T18:54:09.922Z,22.50
2018-07-13T18:56:38.262Z,22.30
2018-07-13T18:59:06.668Z,22.10
2018-07-13T19:01:35.038Z,22.00
2018-07-13T19:04:03.401Z,21.80
2018-07-13T19:06:31.730Z,21.70
2018-07-13T19:09:00.142Z,21.60
2018-07-13T19:11:28.509Z,21.60
2018-07-13T19:13:56.921Z,21.50
2018-07-13T19:16:25.317Z,21.40
2018-07-13T19:18:53.706Z,21.40
2018-07-13T19:21:22.093Z,21.30
2018-07-13T19:23:50.479Z,21.30
2018-07-13T19:26:18.920Z,21.10
2018-07-13T19:28:47.508Z,21.10
2018-07-13T19:31:15.878Z,21.00
2018-07-13T19:33:44.271Z,21.00
2018-07-13T19:36:12.770Z,20.90
2018-07-13T19:38:41.084Z,20.80
2018-07-13T19:41:09.512Z,20.70
2018-07-13T19:43:38.017Z,20.50
2018-07-13T19:46:06.859Z,20.40
2018-07-13T19:48:35.426Z,20.40
2018-07-13T19:51:03.899Z,20.20
2018-07-13T19:53:33.095Z,20.20
2018-07-13T19:56:01.484Z,20.10
2018-07-13T19:58:29.876Z,20.00
2018-07-13T20:00:58.237Z,20.00
2018-07-13T20:03:26.595Z,19.90
2018-07-13T20:05:54.977Z,19.80
2018-07-13T20:08:23.498Z,19.80
2018-07-13T20:10:51.913Z,19.80
2018-07-13T20:13:20.296Z,19.80
2018-07-13T20:15:48.662Z,19.80
2018-07-13T20:18:17.088Z,19.80
2018-07-13T20:20:45.525Z,19.60
2018-07-13T20:23:13.949Z,19.50
2018-07-13T20:25:42.349Z,19.30
2018-07-13T20:30:38.936Z,19.10
2018-07-13T20:33:07.322Z,19.10
2018-07-13T20:35:35.702Z,19.10
2018-07-13T20:38:04.097Z,18.90
2018-07-13T20:40:32.511Z,18.70
2018-07-13T20:43:00.962Z,18.50
2018-07-13T20:45:29.336Z,18.60
2018-07-13T20:47:57.770Z,18.50
2018-07-13T20:50:26.124Z,18.50
2018-07-13T20:52:54.533Z,18.30
2018-07-13T20:55:22.945Z,18.20
2018-07-13T20:57:51.348Z,18.20
2018-07-13T21:00:19.893Z,18.10
2018-07-13T21:02:48.429Z,18.00
2018-07-13T21:05:16.711Z,17.90
2018-07-13T21:07:45.106Z,17.80
2018-07-13T21:10:13.544Z,17.70
2018-07-13T21:12:41.939Z,17.60
2018-07-13T21:15:10.344Z,17.50
2018-07-13T21:20:06.824Z,17.40
2018-07-13T21:22:35.202Z,17.40
2018-07-13T21:25:03.598Z,17.30
2018-07-13T21:27:31.965Z,17.20
2018-07-13T21:30:00.359Z,17.10
2018-07-13T21:32:28.719Z,17.00
2018-07-13T21:34:57.047Z,17.00
2018-07-13T21:37:25.459Z,16.90
2018-07-13T21:39:53.847Z,16.70
2018-07-13T21:42:22.220Z,16.70
2018-07-13T21:44:50.637Z,16.60
2018-07-13T21:47:19.164Z,16.60
2018-07-13T21:49:47.544Z,16.40
2018-07-13T21:52:15.987Z,16.50
2018-07-13T21:54:44.339Z,16.40
2018-07-13T21:57:12.745Z,16.30
2018-07-13T21:59:41.072Z,16.10
2018-07-13T22:02:09.477Z,16.00
2018-07-13T22:04:37.875Z,15.90
2018-07-13T22:07:06.282Z,15.80
2018-07-13T22:09:34.688Z,15.70
2018-07-13T22:12:03.043Z,15.60
2018-07-13T22:14:31.634Z,15.60
2018-07-13T22:17:00.182Z,15.60
2018-07-13T22:19:28.565Z,15.60
2018-07-13T22:21:57.012Z,15.60
2018-07-13T22:24:25.381Z,15.60
2018-07-13T22:26:53.756Z,15.60
2018-07-13T22:29:22.081Z,15.60
2018-07-13T22:31:50.454Z,15.70
2018-07-13T22:34:18.992Z,15.60
2018-07-13T22:36:47.487Z,15.60
2018-07-13T22:39:16.046Z,15.60
2018-07-13T22:41:44.396Z,15.50
2018-07-13T22:44:12.777Z,15.50
2018-07-13T22:46:41.153Z,15.40
2018-07-13T22:49:09.568Z,15.40
2018-07-13T22:51:38.009Z,15.30
2018-07-13T22:54:06.651Z,15.30
2018-07-13T22:56:35.140Z,15.30
2018-07-13T22:59:03.596Z,15.30
2018-07-13T23:01:32.057Z,15.20
2018-07-13T23:09:01.177Z,15.10
2018-07-13T23:11:29.531Z,15.10
2018-07-13T23:13:58.280Z,14.90
2018-07-13T23:16:27.195Z,14.90
2018-07-13T23:18:55.570Z,14.80
2018-07-13T23:21:23.930Z,14.80
2018-07-13T23:23:52.371Z,14.80
2018-07-13T23:26:20.702Z,14.80
2018-07-13T23:28:49.092Z,14.80
2018-07-13T23:31:17.590Z,14.90
2018-07-13T23:33:45.979Z,14.80
2018-07-13T23:36:14.314Z,14.80
2018-07-13T23:38:42.650Z,14.80
2018-07-13T23:41:11.070Z,14.80
2018-07-13T23:43:39.636Z,14.70
2018-07-13T23:46:08.041Z,14.70
2018-07-13T23:48:36.395Z,14.70
2018-07-13T23:51:04.862Z,14.70
2018-07-13T23:53:33.238Z,14.80
2018-07-13T23:56:01.605Z,14.80
2018-07-13T23:58:30.021Z,14.80
